Vremea acum in Baia De Aries - Romania

Vrei sa afli care e starea vremii acum in Arad - Romania? Dorim sa iti furnizam starea vremii pentru Arad - Romania. Starea vremii Arad - Romania pentru astazi.

Vremea acum in Baia De Aries

Temperatura: 16.9 °C

Este: Partial innorat
Se simte ca: 16.9 °C
Innorat: 45 %
Precipitatii: %
Presiune atmosferica: 1012 hPa
Umiditate: 50%
Vizibilitate: 10 km
Vantul bate din WSW cu 9 km/h

Evolutia vremii in Baia De Aries pe ore

Ora: 19:00
Temperatura: °C
Sansa de precipitatii: %
Ora Descriere Temp Se simte Precipitatii Umiditate Vant
00:00Senin4.7°4.7°0%84%N 2.5 KM/H
01:00Senin4.7°4.7°0%81%N 2.5 KM/H
02:00Senin4.7°4.7°0%78%N 2.9 KM/H
03:00Senin0%74%N 2.5 KM/H
04:00Partial innorat5.8°5.8°0%69%N 2.9 KM/H
05:00Partial innorat6.9°6.9°0%67%NW 1.4 KM/H
06:00Partial innorat6.9°6.9°0%68%WNW 1.4 KM/H
07:00Senin7.3°7.3°0%69%NW 1.4 KM/H
08:00Partial innorat10.3°10.3°0%60%WSW 1.8 KM/H
09:00Senin12.8°13°0%53%SSW 4.7 KM/H
10:00Senin14.7°14.8°0%51%SW 6.1 KM/H
11:00Partial innorat14.4°14.4°0%55%SW 6.5 KM/H
12:00Partial innorat17°17°0%48%SW 7.9 KM/H
13:00Partial innorat16.9°16.9°0%50%WSW 9 KM/H
14:00Partial innorat15.2°15.2°0%59%WSW 5 KM/H
15:00Partial innorat15.8°15.8°0%57%W 4.7 KM/H
16:00Partial innorat14.4°14.4°0%65%SW 2.2 KM/H
17:00Senin16.4°16.4°0%59%WSW 3.6 KM/H
18:00Partial innorat13.8°13.8°0%69%WNW 1.4 KM/H
19:00Partial innorat13°13°0%70%N 1.1 KM/H
20:00Innorat12.3°12.3°0%70%SW 1.8 KM/H
21:00Partial innorat14°14.4°0%63%SW 4.7 KM/H
22:00Partial innorat14.3°14.2°0%62%SW 6.8 KM/H
23:00Partial innorat14.2°13.9°0%63%SW 7.9 KM/H




tutorials